Time;durP1;ratioP1;P1;durP2;ratioP2;P2;SDS_P1;SDS_P2;PMS_P1;PMS_P2;Temp;Humidity;BMP_temperature;BMP_pressure;BME280_temperature;BME280_humidity;BME280_pressure;Samples;Min_cycle;Max_cycle;Signal;HPM_P1;HPM_P2
2022/03/08 00:00:20;;;;;;;1.77;0.65;;;1.80;71.70;;;;;;5095648;28;20130;-75
2022/03/08 00:02:47;;;;;;;1.27;0.87;;;1.80;71.70;;;;;;5113347;28;20497;-74
2022/03/08 00:05:13;;;;;;;1.10;0.70;;;1.70;72.30;;;;;;5112786;28;20392;-74
2022/03/08 00:07:39;;;;;;;1.48;0.95;;;1.70;71.70;;;;;;5094514;28;20101;-74
2022/03/08 00:10:07;;;;;;;1.38;0.80;;;1.70;71.80;;;;;;5113223;28;20039;-74
2022/03/08 00:12:33;;;;;;;1.70;0.90;;;1.70;71.80;;;;;;5112602;28;20039;-74
2022/03/08 00:14:59;;;;;;;1.70;1.05;;;1.70;71.80;;;;;;5094925;28;20446;-74
2022/03/08 00:17:25;;;;;;;1.02;0.68;;;1.60;71.80;;;;;;5093572;28;20115;-74
2022/03/08 00:19:51;;;;;;;1.58;1.00;;;1.60;71.80;;;;;;5077395;28;20139;-74
2022/03/08 00:22:17;;;;;;;1.77;0.90;;;1.60;71.80;;;;;;5112484;28;20469;-74
2022/03/08 00:24:43;;;;;;;1.13;0.75;;;1.60;71.90;;;;;;5112250;28;20047;-74
2022/03/08 00:27:09;;;;;;;0.80;0.50;;;1.60;71.90;;;;;;5112970;28;20036;-74
2022/03/08 00:29:35;;;;;;;0.90;0.73;;;1.60;72.00;;;;;;5094203;28;20036;-75
2022/03/08 00:32:01;;;;;;;1.02;0.80;;;1.60;72.00;;;;;;5112348;28;20134;-74
2022/03/08 00:34:26;;;;;;;1.48;0.80;;;1.50;72.00;;;;;;5077202;28;20047;-74
2022/03/08 00:36:52;;;;;;;0.80;0.63;;;1.50;72.10;;;;;;5112663;28;20606;-74
2022/03/08 00:39:18;;;;;;;1.60;0.70;;;1.50;72.20;;;;;;5077201;28;20481;-74
2022/03/08 00:41:44;;;;;;;0.70;0.60;;;1.50;72.20;;;;;;5112859;28;20035;-74
2022/03/08 00:44:10;;;;;;;3.30;0.80;;;1.40;72.80;;;;;;5077288;28;20039;-74
2022/03/08 00:46:36;;;;;;;0.80;0.77;;;1.40;72.20;;;;;;5112317;28;20050;-74
2022/03/08 00:49:03;;;;;;;1.52;0.70;;;1.40;72.20;;;;;;5112230;28;20478;-74
2022/03/08 00:51:29;;;;;;;1.27;0.73;;;1.40;72.20;;;;;;5093958;28;20047;-74
2022/03/08 00:53:54;;;;;;;1.70;0.93;;;1.40;72.30;;;;;;5093738;28;20088;-75
2022/03/08 00:56:20;;;;;;;0.82;0.70;;;1.40;72.30;;;;;;5093682;28;20051;-74
2022/03/08 00:58:47;;;;;;;1.27;0.80;;;1.40;72.40;;;;;;5093766;28;20043;-74
2022/03/08 01:01:12;;;;;;;1.38;0.70;;;1.20;72.40;;;;;;5094056;28;20035;-73
2022/03/08 01:03:38;;;;;;;1.27;0.80;;;1.20;72.40;;;;;;5060193;28;20042;-74
2022/03/08 01:06:04;;;;;;;1.05;0.70;;;1.30;72.50;;;;;;5112367;28;20059;-74
2022/03/08 01:08:30;;;;;;;1.58;0.80;;;1.20;73.10;;;;;;5113665;28;20409;-73
2022/03/08 01:10:56;;;;;;;1.20;0.88;;;1.20;72.60;;;;;;5095835;28;20035;-74
2022/03/08 01:13:22;;;;;;;1.55;0.90;;;1.20;72.70;;;;;;5094560;28;20507;-74
2022/03/08 01:15:48;;;;;;;0.73;0.50;;;1.10;72.70;;;;;;5093772;28;20074;-74
2022/03/08 01:18:14;;;;;;;1.10;0.60;;;1.10;72.70;;;;;;5112011;28;20071;-73
2022/03/08 01:20:40;;;;;;;0.73;0.50;;;1.00;72.80;;;;;;5093771;28;20071;-75
2022/03/08 01:23:06;;;;;;;0.65;0.40;;;1.00;72.80;;;;;;5094097;28;20386;-74
2022/03/08 01:25:32;;;;;;;1.13;0.65;;;1.00;72.90;;;;;;5093616;28;20495;-74
2022/03/08 01:27:57;;;;;;;1.17;0.70;;;0.90;72.90;;;;;;5112573;28;20542;-74
2022/03/08 01:30:24;;;;;;;1.20;0.70;;;0.90;72.90;;;;;;5097045;28;20140;-74
2022/03/08 01:32:51;;;;;;;1.75;0.60;;;0.90;73.00;;;;;;5096947;28;20532;-74
2022/03/08 01:35:18;;;;;;;0.70;0.45;;;0.80;73.00;;;;;;5097053;28;20035;-74
2022/03/08 01:37:44;;;;;;;0.88;0.70;;;0.80;73.10;;;;;;5115016;28;20040;-74
2022/03/08 01:40:14;;;;;;;0.93;0.50;;;0.80;73.10;;;;;;5096593;28;20551;-74
2022/03/08 01:42:42;;;;;;;0.88;0.52;;;0.70;73.20;;;;;;5096625;28;20036;-74
2022/03/08 01:45:08;;;;;;;0.82;0.50;;;0.70;73.20;;;;;;5096563;28;20397;-74
2022/03/08 01:47:34;;;;;;;0.75;0.47;;;0.60;73.30;;;;;;5114822;28;20036;-74
2022/03/08 01:50:00;;;;;;;1.23;0.60;;;0.60;73.40;;;;;;5096993;28;20040;-73
2022/03/08 01:52:28;;;;;;;0.75;0.60;;;0.60;73.40;;;;;;5096681;28;20062;-74
2022/03/08 01:54:54;;;;;;;0.90;0.50;;;0.50;73.50;;;;;;5079673;28;20048;-74
2022/03/08 01:57:23;;;;;;;0.95;0.50;;;0.50;73.50;;;;;;5114832;28;20050;-74
2022/03/08 01:59:50;;;;;;;0.57;0.40;;;0.50;73.70;;;;;;5080093;28;20047;-74
2022/03/08 02:02:15;;;;;;;0.57;0.50;;;0.40;73.60;;;;;;5096719;28;20063;-74
2022/03/08 02:04:41;;;;;;;0.77;0.73;;;0.40;73.70;;;;;;5079400;28;20534;-74
2022/03/08 02:07:08;;;;;;;1.02;0.50;;;0.40;73.70;;;;;;5096270;28;20093;-74
2022/03/08 02:09:33;;;;;;;0.40;0.38;;;0.40;73.70;;;;;;5096530;28;20047;-74
2022/03/08 02:11:59;;;;;;;1.27;0.50;;;0.40;73.70;;;;;;5079458;28;20030;-74
2022/03/08 02:14:27;;;;;;;0.75;0.60;;;0.40;73.60;;;;;;5114805;28;20044;-74
2022/03/08 02:16:53;;;;;;;0.60;0.50;;;0.40;73.60;;;;;;5079470;28;20051;-74
2022/03/08 02:19:19;;;;;;;0.77;0.40;;;0.40;73.60;;;;;;5114902;28;20469;-74
2022/03/08 02:21:44;;;;;;;1.08;0.50;;;0.40;73.50;;;;;;5114918;28;20044;-74
2022/03/08 02:24:11;;;;;;;1.52;0.82;;;0.40;73.50;;;;;;5096230;28;20125;-73
2022/03/08 02:26:37;;;;;;;0.45;0.32;;;0.30;73.50;;;;;;5114341;28;20046;-73
2022/03/08 02:29:06;;;;;;;0.40;0.40;;;0.30;74.10;;;;;;5095942;28;20039;-74
2022/03/08 02:31:31;;;;;;;0.50;0.50;;;0.30;73.50;;;;;;5114154;28;20050;-74
2022/03/08 02:33:57;;;;;;;1.00;0.60;;;0.30;73.40;;;;;;5079243;28;20039;-74
2022/03/08 02:36:23;;;;;;;0.40;0.32;;;0.40;74.20;;;;;;5076946;28;20449;-74
2022/03/08 02:38:49;;;;;;;0.52;0.40;;;0.40;73.50;;;;;;5114098;28;20051;-74
2022/03/08 02:41:16;;;;;;;0.57;0.38;;;0.30;73.40;;;;;;5113342;28;20085;-73
2022/03/08 02:43:41;;;;;;;1.98;0.70;;;0.30;73.40;;;;;;5096177;28;20185;-73
2022/03/08 02:46:07;;;;;;;0.43;0.30;;;0.30;73.40;;;;;;5078686;28;20147;-74
2022/03/08 02:48:34;;;;;;;0.73;0.38;;;0.30;73.40;;;;;;5096039;28;20046;-74
2022/03/08 02:51:00;;;;;;;0.65;0.47;;;0.30;73.40;;;;;;5096058;28;20039;-74
2022/03/08 02:53:26;;;;;;;0.35;0.32;;;0.30;73.40;;;;;;5095653;28;20047;-74
2022/03/08 02:55:52;;;;;;;1.02;0.40;;;0.30;73.50;;;;;;5113891;28;20035;-73
2022/03/08 02:58:18;;;;;;;0.38;0.30;;;0.30;73.40;;;;;;5114111;28;20133;-74
2022/03/08 03:00:44;;;;;;;0.60;0.43;;;0.20;73.40;;;;;;5095544;28;20055;-74
2022/03/08 03:03:10;;;;;;;0.40;0.22;;;0.30;73.50;;;;;;5113717;28;20119;-74
2022/03/08 03:05:36;;;;;;;0.25;0.25;;;0.30;73.40;;;;;;5113614;28;20566;-74
2022/03/08 03:08:04;;;;;;;0.35;0.35;;;0.30;73.30;;;;;;5113474;28;20032;-74
2022/03/08 03:10:30;;;;;;;0.65;0.50;;;0.30;73.30;;;;;;5113502;28;20044;-74
2022/03/08 03:12:57;;;;;;;0.35;0.30;;;0.20;73.30;;;;;;5095433;28;20032;-73
2022/03/08 03:15:24;;;;;;;0.40;0.30;;;0.20;73.20;;;;;;5078650;28;20059;-74
2022/03/08 03:17:51;;;;;;;0.20;0.20;;;0.30;73.30;;;;;;5095318;28;20134;-74
2022/03/08 03:20:19;;;;;;;0.73;0.40;;;0.20;73.20;;;;;;5061671;28;20051;-74
2022/03/08 03:22:46;;;;;;;0.38;0.32;;;0.30;73.20;;;;;;5113460;28;20122;-74
2022/03/08 03:25:13;;;;;;;0.63;0.30;;;0.30;73.20;;;;;;5094002;28;20044;-73
2022/03/08 03:27:39;;;;;;;0.63;0.30;;;0.20;73.10;;;;;;5095058;28;20036;-73
2022/03/08 03:30:10;;;;;;;0.25;0.20;;;0.30;73.10;;;;;;5095023;28;20047;-73
2022/03/08 03:32:36;;;;;;;0.40;0.28;;;0.30;73.00;;;;;;5113182;28;20043;-74
2022/03/08 03:35:02;;;;;;;0.73;0.40;;;0.30;72.90;;;;;;5113584;28;20047;-73
2022/03/08 03:37:28;;;;;;;0.43;0.38;;;0.30;72.90;;;;;;5095369;28;20049;-73
2022/03/08 03:39:53;;;;;;;0.35;0.20;;;0.30;72.80;;;;;;5094787;28;20131;-74
2022/03/08 03:42:19;;;;;;;0.32;0.22;;;0.30;72.80;;;;;;5094704;28;20130;-74
2022/03/08 03:44:45;;;;;;;0.80;0.43;;;0.30;72.80;;;;;;5096194;28;20050;-73
2022/03/08 03:47:11;;;;;;;0.35;0.35;;;0.30;72.70;;;;;;5113785;28;20032;-73
2022/03/08 03:49:37;;;;;;;0.80;0.43;;;0.30;72.70;;;;;;5094553;28;20066;-74
2022/03/08 03:52:03;;;;;;;0.30;0.30;;;0.30;72.80;;;;;;5093634;28;20039;-73
2022/03/08 03:54:30;;;;;;;0.20;0.20;;;0.30;72.90;;;;;;5111083;28;20039;-73
2022/03/08 03:56:56;;;;;;;0.88;0.30;;;0.30;72.90;;;;;;5112841;28;20059;-73
2022/03/08 03:59:21;;;;;;;0.30;0.20;;;0.30;72.90;;;;;;5077894;28;20534;-74
2022/03/08 04:01:47;;;;;;;0.40;0.40;;;0.20;72.90;;;;;;5113018;28;20118;-73
2022/03/08 04:04:13;;;;;;;0.30;0.30;;;0.30;73.00;;;;;;5113080;28;20050;-73
2022/03/08 04:06:39;;;;;;;0.22;0.22;;;0.20;72.80;;;;;;5094660;28;20058;-73
2022/03/08 04:09:05;;;;;;;0.30;0.30;;;0.30;72.90;;;;;;5113302;28;20044;-74
2022/03/08 04:11:31;;;;;;;0.45;0.30;;;0.30;72.80;;;;;;5078242;28;20062;-74
2022/03/08 04:13:58;;;;;;;0.30;0.30;;;0.20;72.70;;;;;;5112918;28;20040;-74
2022/03/08 04:16:23;;;;;;;0.30;0.30;;;0.10;72.60;;;;;;5095128;28;20140;-74
2022/03/08 04:18:49;;;;;;;0.73;0.40;;;0.20;72.70;;;;;;5112492;28;20131;-74
2022/03/08 04:21:15;;;;;;;0.20;0.20;;;0.20;72.70;;;;;;5113069;28;20039;-74
2022/03/08 04:23:41;;;;;;;0.40;0.35;;;0.20;72.70;;;;;;5112470;28;20100;-74
2022/03/08 04:26:07;;;;;;;0.45;0.40;;;0.20;72.70;;;;;;5094409;28;20527;-74
2022/03/08 04:28:32;;;;;;;1.17;0.50;;;0.10;72.70;;;;;;5112844;28;20043;-74
2022/03/08 04:30:58;;;;;;;0.55;0.28;;;0.20;72.80;;;;;;5094121;28;20040;-74
2022/03/08 04:33:24;;;;;;;0.45;0.30;;;0.10;72.80;;;;;;5112245;28;20481;-73
2022/03/08 04:35:50;;;;;;;0.35;0.30;;;0.10;72.80;;;;;;5077631;28;20039;-74
2022/03/08 04:38:16;;;;;;;0.77;0.43;;;0.10;72.90;;;;;;5112483;28;20044;-74
2022/03/08 04:40:41;;;;;;;0.30;0.30;;;0.10;72.90;;;;;;5112247;28;20453;-74
2022/03/08 04:43:07;;;;;;;0.20;0.20;;;0.10;72.90;;;;;;5112910;28;20504;-74
2022/03/08 04:45:33;;;;;;;0.57;0.30;;;0.00;72.90;;;;;;5093930;28;20587;-74
2022/03/08 04:47:59;;;;;;;0.73;0.52;;;0.00;72.90;;;;;;5112640;28;20122;-74
2022/03/08 04:50:25;;;;;;;0.20;0.20;;;0.00;72.90;;;;;;5112423;28;20397;-74
2022/03/08 04:52:51;;;;;;;0.50;0.30;;;0.00;72.90;;;;;;5077294;28;20047;-74
2022/03/08 04:55:19;;;;;;;0.52;0.30;;;0.10;72.90;;;;;;5112487;28;20040;-74
2022/03/08 04:57:45;;;;;;;0.50;0.40;;;0.10;72.90;;;;;;5112053;28;20350;-74
2022/03/08 05:00:12;;;;;;;0.68;0.50;;;0.10;72.80;;;;;;5094359;28;20046;-74
2022/03/08 05:02:39;;;;;;;0.43;0.30;;;0.00;72.80;;;;;;5094363;28;20397;-74
2022/03/08 05:05:08;;;;;;;0.32;0.20;;;0.00;72.80;;;;;;5097561;28;20039;-74
2022/03/08 05:07:35;;;;;;;0.30;0.20;;;0.00;72.80;;;;;;5080894;28;20036;-74
2022/03/08 05:10:03;;;;;;;0.60;0.25;;;0.00;72.80;;;;;;5115847;28;20115;-73
2022/03/08 05:12:30;;;;;;;0.30;0.30;;;0.00;72.80;;;;;;5097905;28;20063;-74
2022/03/08 05:14:56;;;;;;;0.30;0.30;;;0.00;72.80;;;;;;5097751;28;20036;-73
2022/03/08 05:17:22;;;;;;;0.20;0.20;;;0.00;72.80;;;;;;5115807;28;20050;-73
2022/03/08 05:19:47;;;;;;;0.57;0.28;;;0.00;72.80;;;;;;5080488;28;20123;-73
2022/03/08 05:22:13;;;;;;;0.40;0.40;;;0.00;72.90;;;;;;5115519;28;20048;-73
2022/03/08 05:24:40;;;;;;;0.57;0.30;;;0.00;72.90;;;;;;5081287;28;20044;-74
2022/03/08 05:27:07;;;;;;;0.32;0.30;;;-0.10;72.90;;;;;;5098944;28;20035;-73
2022/03/08 05:29:33;;;;;;;0.40;0.30;;;-0.10;72.90;;;;;;5099813;28;20048;-73
2022/03/08 05:31:59;;;;;;;0.30;0.20;;;-0.10;72.90;;;;;;5098432;28;20396;-73
2022/03/08 05:34:25;;;;;;;1.00;0.32;;;-0.10;73.00;;;;;;5098000;28;20043;-73
2022/03/08 05:36:51;;;;;;;0.45;0.30;;;-0.20;73.00;;;;;;5097750;28;20039;-74
2022/03/08 05:39:17;;;;;;;0.30;0.30;;;-0.20;73.00;;;;;;5097868;28;20036;-74
2022/03/08 05:41:43;;;;;;;0.70;0.30;;;-0.20;73.10;;;;;;5097392;28;20055;-74
2022/03/08 05:44:08;;;;;;;0.30;0.30;;;-0.20;73.10;;;;;;5080121;28;20124;-74
2022/03/08 05:46:34;;;;;;;0.28;0.22;;;-0.20;73.10;;;;;;5096798;28;20051;-73
2022/03/08 05:49:00;;;;;;;0.25;0.25;;;-0.20;73.20;;;;;;5115076;28;20415;-74
2022/03/08 05:51:26;;;;;;;0.70;0.40;;;-0.30;73.20;;;;;;5115025;28;20036;-74
2022/03/08 05:53:52;;;;;;;0.55;0.30;;;-0.30;73.20;;;;;;5079858;28;20083;-74
2022/03/08 05:56:17;;;;;;;0.60;0.40;;;-0.30;73.20;;;;;;5115361;28;20065;-74
2022/03/08 05:58:43;;;;;;;0.38;0.28;;;-0.30;73.30;;;;;;5096662;28;20382;-74
2022/03/08 06:01:09;;;;;;;0.95;0.35;;;-0.30;73.30;;;;;;5079590;28;20476;-73
2022/03/08 06:03:35;;;;;;;0.40;0.32;;;-0.40;73.30;;;;;;5096596;28;20082;-73
2022/03/08 06:06:00;;;;;;;0.40;0.30;;;-0.40;73.30;;;;;;5096611;28;20552;-73
2022/03/08 06:08:26;;;;;;;0.57;0.35;;;-0.40;73.30;;;;;;5096987;28;20045;-73
2022/03/08 06:10:52;;;;;;;0.70;0.38;;;-0.30;73.40;;;;;;5097286;28;20035;-75
2022/03/08 06:13:18;;;;;;;0.60;0.30;;;-0.40;73.30;;;;;;5099455;28;20407;-74
2022/03/08 06:15:43;;;;;;;0.20;0.20;;;-0.40;73.30;;;;;;5117859;28;20118;-74
2022/03/08 06:18:09;;;;;;;0.75;0.45;;;-0.40;73.20;;;;;;5119092;28;20051;-74
2022/03/08 06:20:35;;;;;;;0.38;0.30;;;-0.40;73.20;;;;;;5118688;28;20043;-74
2022/03/08 06:23:01;;;;;;;0.20;0.20;;;-0.40;73.20;;;;;;5118210;28;20043;-74
2022/03/08 06:25:26;;;;;;;0.57;0.30;;;-0.30;73.20;;;;;;5099369;28;20054;-74
2022/03/08 06:27:52;;;;;;;0.30;0.30;;;-0.40;73.20;;;;;;5101020;28;20040;-74
2022/03/08 06:30:18;;;;;;;0.65;0.38;;;-0.40;73.20;;;;;;5120168;28;20036;-74
2022/03/08 06:32:43;;;;;;;0.35;0.30;;;-0.30;73.20;;;;;;5100747;28;20040;-74
2022/03/08 06:35:10;;;;;;;1.13;0.38;;;-0.30;73.20;;;;;;5084574;28;20039;-74
2022/03/08 06:37:36;;;;;;;0.30;0.30;;;-0.30;73.10;;;;;;5118198;28;20044;-74
2022/03/08 06:40:03;;;;;;;0.57;0.35;;;-0.30;73.10;;;;;;5083800;28;20040;-74
2022/03/08 06:42:29;;;;;;;0.22;0.20;;;-0.20;73.10;;;;;;5119653;28;20043;-74
2022/03/08 06:44:54;;;;;;;0.60;0.40;;;-0.20;72.90;;;;;;5120113;28;20573;-74
2022/03/08 06:47:20;;;;;;;0.30;0.30;;;-0.20;72.90;;;;;;5103002;28;20063;-74
2022/03/08 06:49:46;;;;;;;0.55;0.50;;;-0.10;72.80;;;;;;5102702;28;20416;-74
2022/03/08 06:52:12;;;;;;;0.85;0.43;;;0.10;72.80;;;;;;5104219;28;20481;-74
2022/03/08 06:54:40;;;;;;;0.70;0.50;;;0.00;72.50;;;;;;5121781;28;20101;-75
2022/03/08 06:57:06;;;;;;;0.65;0.43;;;0.10;72.50;;;;;;5086910;28;20035;-74
2022/03/08 06:59:32;;;;;;;0.50;0.30;;;0.20;72.30;;;;;;5122145;28;20039;-75
2022/03/08 07:01:57;;;;;;;0.40;0.40;;;0.30;72.20;;;;;;5119568;28;20503;-75
2022/03/08 07:04:24;;;;;;;0.82;0.60;;;0.40;72.00;;;;;;5098932;28;20374;-74
2022/03/08 07:06:50;;;;;;;0.82;0.60;;;0.40;71.90;;;;;;5115457;28;20043;-74
2022/03/08 07:09:16;;;;;;;0.40;0.40;;;0.50;71.80;;;;;;5100500;28;20048;-74
2022/03/08 07:11:42;;;;;;;0.52;0.40;;;0.50;71.60;;;;;;5066270;28;20046;-74
2022/03/08 07:14:08;;;;;;;1.00;0.60;;;0.60;71.50;;;;;;5083353;28;20044;-74
2022/03/08 07:16:34;;;;;;;1.38;0.57;;;0.70;71.40;;;;;;5118334;28;20036;-74
2022/03/08 07:19:00;;;;;;;1.35;0.60;;;0.70;71.30;;;;;;5099719;28;20647;-74
2022/03/08 07:21:25;;;;;;;0.77;0.57;;;0.90;71.30;;;;;;5087390;28;20118;-75
2022/03/08 07:23:52;;;;;;;0.60;0.60;;;0.90;71.20;;;;;;5123269;28;20038;-74
2022/03/08 07:26:18;;;;;;;1.13;0.68;;;1.00;71.20;;;;;;5089010;28;20050;-75
2022/03/08 07:28:43;;;;;;;0.73;0.70;;;1.00;71.00;;;;;;5123450;28;20537;-75
2022/03/08 07:31:12;;;;;;;0.82;0.70;;;1.10;71.00;;;;;;5105415;28;20043;-75
2022/03/08 07:33:38;;;;;;;1.17;0.75;;;1.20;70.90;;;;;;5103206;28;20044;-75
2022/03/08 07:36:04;;;;;;;1.73;0.68;;;1.30;70.80;;;;;;5105563;28;20123;-75
2022/03/08 07:38:30;;;;;;;1.02;0.70;;;1.40;70.70;;;;;;5121722;28;20040;-75
2022/03/08 07:40:56;;;;;;;1.15;0.70;;;1.40;70.50;;;;;;5081680;28;20044;-74
2022/03/08 07:43:21;;;;;;;1.05;0.70;;;1.50;70.50;;;;;;5099275;28;20111;-74
2022/03/08 07:45:47;;;;;;;1.13;0.60;;;1.60;70.30;;;;;;5115708;28;20785;-74
2022/03/08 07:48:13;;;;;;;0.90;0.77;;;1.80;70.20;;;;;;5098308;28;20055;-74
2022/03/08 07:50:39;;;;;;;0.70;0.63;;;1.90;70.10;;;;;;5099573;28;20085;-75
2022/03/08 07:53:06;;;;;;;1.17;0.88;;;2.00;70.00;;;;;;5116763;28;20032;-74
2022/03/08 07:55:32;;;;;;;0.63;0.52;;;2.10;69.80;;;;;;5080562;28;20480;-75
2022/03/08 07:57:59;;;;;;;0.65;0.50;;;2.20;69.70;;;;;;5115772;28;20035;-74
2022/03/08 08:00:26;;;;;;;0.90;0.60;;;2.30;69.50;;;;;;5096053;28;20048;-74
2022/03/08 08:02:51;;;;;;;0.77;0.55;;;2.40;69.30;;;;;;5117748;28;20451;-74
2022/03/08 08:05:18;;;;;;;1.65;0.80;;;2.60;69.10;;;;;;5100391;28;20047;-75
2022/03/08 08:07:44;;;;;;;1.58;0.55;;;2.80;69.00;;;;;;5097996;28;20051;-75
2022/03/08 08:10:10;;;;;;;1.48;0.90;;;2.90;68.80;;;;;;5118737;28;20032;-74
2022/03/08 08:12:37;;;;;;;0.80;0.80;;;3.00;68.60;;;;;;5117781;28;20551;-74
2022/03/08 08:15:04;;;;;;;1.35;0.82;;;3.20;68.50;;;;;;5116348;28;20063;-75
2022/03/08 08:17:30;;;;;;;1.45;1.00;;;3.40;68.30;;;;;;5097656;28;20043;-74
2022/03/08 08:19:56;;;;;;;1.60;0.98;;;3.50;68.20;;;;;;5116972;28;20044;-75
2022/03/08 08:22:22;;;;;;;1.50;1.00;;;3.60;68.00;;;;;;5099091;28;20142;-75
2022/03/08 08:24:48;;;;;;;1.92;1.10;;;3.70;67.80;;;;;;5082153;28;20051;-75
2022/03/08 08:27:14;;;;;;;1.52;1.05;;;3.90;67.70;;;;;;5098746;28;20045;-75
2022/03/08 08:29:40;;;;;;;1.75;1.10;;;4.10;67.70;;;;;;5095257;28;20089;-75
2022/03/08 08:32:06;;;;;;;1.23;0.85;;;4.10;67.60;;;;;;5113334;28;20043;-75
2022/03/08 08:34:32;;;;;;;2.35;1.30;;;4.20;67.50;;;;;;5094565;28;20027;-75
2022/03/08 08:36:58;;;;;;;2.03;1.25;;;4.20;67.40;;;;;;5112855;28;20084;-75
2022/03/08 08:39:24;;;;;;;2.03;1.20;;;4.30;67.40;;;;;;5080622;28;20374;-75
2022/03/08 08:41:50;;;;;;;1.75;1.00;;;4.40;67.30;;;;;;5116301;28;20040;-75
2022/03/08 08:44:15;;;;;;;1.27;1.00;;;4.50;67.30;;;;;;5116704;28;20039;-75
2022/03/08 08:46:41;;;;;;;1.42;1.00;;;4.50;67.30;;;;;;5116615;28;20050;-74
2022/03/08 08:49:07;;;;;;;2.50;1.10;;;4.60;67.30;;;;;;5098612;28;20032;-74
2022/03/08 08:51:33;;;;;;;1.13;0.80;;;4.70;67.20;;;;;;5116245;28;20039;-74
2022/03/08 08:54:00;;;;;;;2.63;1.17;;;4.70;67.00;;;;;;5097723;28;20035;-74
2022/03/08 08:56:26;;;;;;;1.15;0.75;;;4.80;67.10;;;;;;5116189;28;20051;-74
2022/03/08 08:58:52;;;;;;;0.70;0.60;;;4.90;67.10;;;;;;5116101;28;20058;-74
2022/03/08 09:01:17;;;;;;;0.68;0.68;;;4.90;67.10;;;;;;5116308;28;20062;-74
2022/03/08 09:03:43;;;;;;;1.13;0.80;;;5.00;67.20;;;;;;5115850;28;20036;-74
2022/03/08 09:06:09;;;;;;;1.20;1.00;;;5.00;66.90;;;;;;5097688;28;20035;-75
2022/03/08 09:08:35;;;;;;;1.38;1.05;;;5.20;66.90;;;;;;5097577;28;20100;-75
2022/03/08 09:11:00;;;;;;;2.03;1.00;;;5.20;66.80;;;;;;5116029;28;20396;-74
2022/03/08 09:13:26;;;;;;;2.13;1.08;;;5.30;66.80;;;;;;5115785;28;20027;-75
2022/03/08 09:15:52;;;;;;;1.05;0.80;;;5.30;66.70;;;;;;5115666;28;20071;-75
2022/03/08 09:18:18;;;;;;;1.40;0.90;;;5.40;66.70;;;;;;5115812;28;20104;-76
2022/03/08 09:20:44;;;;;;;1.15;0.70;;;5.50;66.70;;;;;;5097444;28;20486;-75
2022/03/08 09:23:11;;;;;;;1.05;0.90;;;5.50;66.60;;;;;;5097646;28;20043;-75
2022/03/08 09:25:37;;;;;;;1.23;0.85;;;5.60;66.50;;;;;;5097999;28;20039;-74
2022/03/08 09:28:06;;;;;;;1.10;0.80;;;5.70;66.40;;;;;;5097738;28;20038;-75
2022/03/08 09:30:34;;;;;;;1.50;1.00;;;5.70;66.40;;;;;;5097651;28;20128;-75
2022/03/08 09:33:01;;;;;;;1.38;0.95;;;5.80;66.40;;;;;;5115849;28;20590;-74
2022/03/08 09:35:27;;;;;;;2.05;0.82;;;5.80;66.20;;;;;;5097945;28;20042;-74
2022/03/08 09:37:54;;;;;;;1.17;0.80;;;5.90;66.20;;;;;;5115402;28;20089;-74
2022/03/08 09:40:21;;;;;;;1.75;1.00;;;6.00;66.20;;;;;;5115723;28;20051;-74
2022/03/08 09:42:48;;;;;;;1.20;0.80;;;6.00;66.00;;;;;;5097292;28;20062;-75
2022/03/08 09:45:14;;;;;;;1.40;0.90;;;6.10;66.00;;;;;;5080234;28;20048;-74
2022/03/08 09:47:41;;;;;;;0.95;0.68;;;6.20;66.00;;;;;;5097818;28;20381;-75
2022/03/08 09:50:08;;;;;;;0.85;0.80;;;6.20;65.80;;;;;;5114215;28;20561;-74
2022/03/08 09:52:36;;;;;;;0.73;0.60;;;6.30;65.70;;;;;;5096888;28;20040;-75
2022/03/08 09:55:03;;;;;;;1.73;1.00;;;6.40;65.70;;;;;;5115498;28;20527;-75
2022/03/08 09:57:29;;;;;;;1.40;0.98;;;6.40;65.50;;;;;;5115249;28;20046;-74
2022/03/08 09:59:54;;;;;;;0.65;0.65;;;6.50;65.40;;;;;;5097301;28;20388;-75
2022/03/08 10:02:22;;;;;;;1.70;0.90;;;6.50;65.30;;;;;;5096719;28;20485;-75
2022/03/08 10:05:02;;;;;;;1.20;0.80;;;6.60;65.30;;;;;;5114706;28;20092;-75
2022/03/08 10:07:27;;;;;;;1.00;0.80;;;6.60;65.30;;;;;;5112900;28;20043;-74
2022/03/08 10:09:55;;;;;;;1.10;0.77;;;6.60;65.20;;;;;;5115392;28;20047;-74
2022/03/08 10:12:21;;;;;;;0.57;0.57;;;6.70;65.10;;;;;;5096726;28;20489;-74
2022/03/08 10:14:47;;;;;;;0.93;0.77;;;6.70;65.10;;;;;;5115369;28;20101;-74
2022/03/08 10:17:34;;;;;;;1.35;0.80;;;6.80;65.00;;;;;;5114781;28;20050;-74
2022/03/08 10:20:00;;;;;;;1.50;0.88;;;6.80;65.60;;;;;;5113011;28;20043;-75
2022/03/08 10:22:34;;;;;;;0.90;0.80;;;6.90;64.90;;;;;;5115249;28;20036;-75
2022/03/08 10:25:17;;;;;;;1.42;0.90;;;6.90;64.80;;;;;;5096505;28;20031;-74
2022/03/08 10:27:58;;;;;;;1.15;0.85;;;7.00;64.70;;;;;;5096341;28;20382;-74
2022/03/08 10:30:29;;;;;;;1.67;1.00;;;7.00;64.70;;;;;;5098933;28;20048;-74
2022/03/08 10:32:59;;;;;;;0.65;0.65;;;7.10;64.60;;;;;;5114545;28;20118;-75
2022/03/08 10:35:27;;;;;;;1.08;0.80;;;7.20;64.50;;;;;;5114640;28;20586;-74
2022/03/08 10:37:57;;;;;;;1.02;0.68;;;7.30;64.30;;;;;;5097033;28;20045;-74
2022/03/08 10:40:30;;;;;;;1.00;0.80;;;7.40;64.80;;;;;;5096076;28;20036;-74
2022/03/08 10:43:01;;;;;;;1.35;0.90;;;7.40;64.00;;;;;;5096482;28;20044;-75
2022/03/08 10:45:29;;;;;;;1.10;0.75;;;7.60;63.80;;;;;;5114970;28;20485;-74
2022/03/08 10:47:55;;;;;;;0.60;0.60;;;7.60;63.70;;;;;;5115329;28;20382;-74
2022/03/08 10:50:24;;;;;;;1.35;0.80;;;7.70;63.60;;;;;;5096686;28;20524;-74
2022/03/08 10:52:52;;;;;;;0.77;0.70;;;7.80;63.40;;;;;;5113093;28;20074;-75
2022/03/08 10:55:23;;;;;;;1.63;0.70;;;8.00;63.10;;;;;;5094723;28;20036;-74
2022/03/08 10:57:54;;;;;;;1.08;0.73;;;8.10;62.90;;;;;;5095838;28;20473;-74
2022/03/08 11:00:27;;;;;;;1.02;0.70;;;8.20;62.80;;;;;;5115124;28;20035;-75
2022/03/08 11:02:56;;;;;;;1.08;0.88;;;8.30;62.60;;;;;;5115152;28;20071;-74
2022/03/08 11:05:27;;;;;;;1.25;0.80;;;8.30;62.40;;;;;;5097758;28;20070;-75
2022/03/08 11:07:54;;;;;;;0.90;0.70;;;8.50;62.40;;;;;;5083391;28;20040;-74
2022/03/08 11:10:21;;;;;;;1.02;0.80;;;8.60;62.20;;;;;;5096184;28;20046;-74
2022/03/08 11:12:47;;;;;;;0.70;0.70;;;8.70;62.10;;;;;;5114342;28;20035;-72
2022/03/08 11:15:16;;;;;;;0.90;0.70;;;8.80;61.90;;;;;;5114803;28;20039;-75
2022/03/08 11:17:45;;;;;;;0.70;0.70;;;8.80;61.60;;;;;;5096415;28;20039;-74
2022/03/08 11:20:12;;;;;;;0.90;0.60;;;8.90;61.50;;;;;;5113925;28;20101;-74
2022/03/08 11:22:39;;;;;;;0.88;0.68;;;9.00;61.50;;;;;;5114364;28;20043;-75
2022/03/08 11:25:10;;;;;;;1.23;0.77;;;9.10;61.40;;;;;;5114208;28;20074;-74
2022/03/08 11:27:40;;;;;;;0.63;0.52;;;9.20;61.30;;;;;;5079418;28;20050;-74
2022/03/08 11:30:08;;;;;;;1.08;0.70;;;9.20;61.00;;;;;;5095579;28;20065;-74
2022/03/08 11:32:51;;;;;;;1.30;0.80;;;9.30;60.80;;;;;;5095585;28;20126;-75
2022/03/08 11:35:41;;;;;;;0.70;0.70;;;9.30;60.60;;;;;;5113008;28;20100;-75
2022/03/08 11:38:13;;;;;;;1.40;0.80;;;9.30;60.50;;;;;;5113900;28;20047;-75
2022/03/08 11:40:49;;;;;;;1.02;0.70;;;9.40;60.50;;;;;;5078762;28;20097;-74
2022/03/08 11:43:14;;;;;;;1.17;0.88;;;9.40;60.30;;;;;;5094717;28;20552;-75
2022/03/08 11:45:40;;;;;;;1.15;0.73;;;9.40;60.30;;;;;;5095236;28;20039;-74
2022/03/08 11:48:09;;;;;;;1.10;0.70;;;9.50;60.30;;;;;;5095670;28;20043;-75
2022/03/08 11:50:39;;;;;;;1.63;0.73;;;9.60;60.10;;;;;;5095016;28;20040;-73
2022/03/08 11:53:12;;;;;;;0.63;0.60;;;9.70;60.00;;;;;;5113903;28;20032;-75
2022/03/08 11:55:48;;;;;;;0.82;0.70;;;9.70;59.80;;;;;;5095948;28;20095;-74
2022/03/08 11:58:40;;;;;;;1.10;0.80;;;9.70;59.70;;;;;;5095386;28;20039;-73
2022/03/08 12:01:06;;;;;;;0.85;0.68;;;9.80;59.60;;;;;;5094717;28;20055;-74
2022/03/08 12:03:39;;;;;;;0.65;0.50;;;9.90;59.50;;;;;;5113223;28;20040;-74
2022/03/08 12:06:09;;;;;;;1.05;0.77;;;9.90;59.40;;;;;;5113062;28;20154;-74
2022/03/08 12:08:40;;;;;;;0.65;0.60;;;10.00;59.30;;;;;;5094569;28;20397;-74
2022/03/08 12:11:27;;;;;;;1.10;0.70;;;10.10;59.20;;;;;;5094816;28;20051;-75
2022/03/08 12:14:05;;;;;;;0.60;0.60;;;10.20;59.10;;;;;;5111833;28;20035;-74
2022/03/08 12:16:31;;;;;;;1.67;0.88;;;10.30;59.00;;;;;;5112953;28;20043;-74
2022/03/08 12:18:59;;;;;;;0.70;0.70;;;10.40;58.90;;;;;;5095113;28;20382;-74
2022/03/08 12:21:30;;;;;;;0.77;0.57;;;10.40;58.90;;;;;;5112801;28;20042;-74
2022/03/08 12:24:11;;;;;;;0.82;0.70;;;10.60;58.80;;;;;;5113173;28;20047;-74
2022/03/08 12:26:54;;;;;;;0.47;0.40;;;10.70;58.50;;;;;;5112331;28;20050;-74
2022/03/08 12:29:24;;;;;;;1.52;0.70;;;10.70;58.30;;;;;;5112032;28;20039;-75
2022/03/08 12:32:10;;;;;;;0.50;0.50;;;10.80;58.30;;;;;;5112680;28;20051;-75
2022/03/08 12:34:43;;;;;;;0.73;0.60;;;10.90;58.20;;;;;;5112763;28;20043;-74
2022/03/08 12:37:14;;;;;;;0.85;0.57;;;10.90;58.10;;;;;;5112368;28;20048;-74
2022/03/08 12:39:54;;;;;;;0.55;0.50;;;11.10;58.00;;;;;;5094381;28;20081;-74
2022/03/08 12:42:38;;;;;;;0.87;0.57;;;11.20;57.80;;;;;;5094072;28;20073;-74
2022/03/08 12:45:08;;;;;;;0.60;0.60;;;11.20;57.80;;;;;;5092855;28;20048;-74
2022/03/08 12:47:38;;;;;;;0.98;0.70;;;11.30;57.70;;;;;;5095111;28;20040;-74
2022/03/08 12:50:09;;;;;;;1.67;0.80;;;11.30;57.60;;;;;;5094607;28;20078;-75
2022/03/08 12:52:40;;;;;;;0.98;0.73;;;11.30;57.60;;;;;;5077471;28;20397;-75
2022/03/08 12:55:09;;;;;;;0.90;0.73;;;11.40;57.50;;;;;;5112405;28;20036;-74